sensor_id;sensor_type;location;lat;lon;timestamp;pressure;altitude;pressure_sealevel;temperature;humidity
7433;BME280;32233;49.500;7.764;2023-01-28T00:00:56;99225.03;;;0.41;100.00
7433;BME280;32233;49.500;7.764;2023-01-28T00:03:22;99226.22;;;0.37;100.00
7433;BME280;32233;49.500;7.764;2023-01-28T00:05:49;99213.78;;;0.40;100.00
7433;BME280;32233;49.500;7.764;2023-01-28T00:08:15;99217.34;;;0.39;100.00
7433;BME280;32233;49.500;7.764;2023-01-28T00:10:42;99222.28;;;0.31;100.00
7433;BME280;32233;49.500;7.764;2023-01-28T00:13:11;99218.03;;;0.19;100.00
7433;BME280;32233;49.500;7.764;2023-01-28T00:15:40;99218.28;;;0.38;100.00
7433;BME280;32233;49.500;7.764;2023-01-28T00:18:06;99217.31;;;0.28;100.00
7433;BME280;32233;49.500;7.764;2023-01-28T00:20:33;99217.91;;;0.32;100.00
7433;BME280;32233;49.500;7.764;2023-01-28T00:23:00;99216.81;;;0.12;100.00
7433;BME280;32233;49.500;7.764;2023-01-28T00:25:27;99213.31;;;0.13;100.00
7433;BME280;32233;49.500;7.764;2023-01-28T00:27:53;99214.59;;;0.07;100.00
7433;BME280;32233;49.500;7.764;2023-01-28T00:30:20;99214.72;;;0.28;100.00
7433;BME280;32233;49.500;7.764;2023-01-28T00:32:47;99214.25;;;0.23;100.00
7433;BME280;32233;49.500;7.764;2023-01-28T00:35:13;99211.28;;;0.28;100.00
7433;BME280;32233;49.500;7.764;2023-01-28T00:37:41;99213.56;;;0.21;100.00
7433;BME280;32233;49.500;7.764;2023-01-28T00:40:08;99207.59;;;0.08;100.00
7433;BME280;32233;49.500;7.764;2023-01-28T00:42:35;99205.50;;;0.13;100.00
7433;BME280;32233;49.500;7.764;2023-01-28T00:45:02;99200.31;;;0.13;100.00
7433;BME280;32233;49.500;7.764;2023-01-28T00:47:29;99204.81;;;0.33;100.00
7433;BME280;32233;49.500;7.764;2023-01-28T00:49:55;99215.22;;;0.33;100.00
7433;BME280;32233;49.500;7.764;2023-01-28T00:52:22;99200.91;;;0.28;100.00
7433;BME280;32233;49.500;7.764;2023-01-28T00:54:49;99206.59;;;0.33;100.00
7433;BME280;32233;49.500;7.764;2023-01-28T00:57:15;99204.91;;;0.32;100.00
7433;BME280;32233;49.500;7.764;2023-01-28T00:59:42;99205.28;;;0.49;100.00
7433;BME280;32233;49.500;7.764;2023-01-28T01:02:08;99209.88;;;0.23;100.00
7433;BME280;32233;49.500;7.764;2023-01-28T01:04:39;99207.84;;;0.16;100.00
7433;BME280;32233;49.500;7.764;2023-01-28T01:07:06;99207.03;;;0.04;100.00
7433;BME280;32233;49.500;7.764;2023-01-28T01:09:32;99211.44;;;0.26;100.00
7433;BME280;32233;49.500;7.764;2023-01-28T01:11:59;99211.19;;;0.29;100.00
7433;BME280;32233;49.500;7.764;2023-01-28T01:14:25;99209.88;;;0.23;100.00
7433;BME280;32233;49.500;7.764;2023-01-28T01:16:52;99212.38;;;0.25;100.00
7433;BME280;32233;49.500;7.764;2023-01-28T01:19:18;99211.66;;;0.23;100.00
7433;BME280;32233;49.500;7.764;2023-01-28T01:21:45;99211.41;;;0.15;100.00
7433;BME280;32233;49.500;7.764;2023-01-28T01:24:15;99223.84;;;0.34;100.00
7433;BME280;32233;49.500;7.764;2023-01-28T01:26:42;99214.72;;;0.39;100.00
7433;BME280;32233;49.500;7.764;2023-01-28T01:29:09;99216.50;;;0.28;100.00
7433;BME280;32233;49.500;7.764;2023-01-28T01:31:35;99216.28;;;0.42;100.00
7433;BME280;32233;49.500;7.764;2023-01-28T01:34:02;99219.91;;;0.28;100.00
7433;BME280;32233;49.500;7.764;2023-01-28T01:36:28;99223.97;;;0.21;100.00
7433;BME280;32233;49.500;7.764;2023-01-28T01:38:55;99227.75;;;0.39;100.00
7433;BME280;32233;49.500;7.764;2023-01-28T01:41:28;99225.72;;;0.32;100.00
7433;BME280;32233;49.500;7.764;2023-01-28T01:43:58;99231.88;;;0.31;100.00
7433;BME280;32233;49.500;7.764;2023-01-28T01:48:56;99221.00;;;0.37;100.00
7433;BME280;32233;49.500;7.764;2023-01-28T01:51:30;99226.56;;;0.21;100.00
7433;BME280;32233;49.500;7.764;2023-01-28T01:53:58;99226.91;;;0.28;100.00
7433;BME280;32233;49.500;7.764;2023-01-28T01:56:29;99226.66;;;0.19;100.00
7433;BME280;32233;49.500;7.764;2023-01-28T01:58:59;99231.50;;;0.24;100.00
7433;BME280;32233;49.500;7.764;2023-01-28T02:01:28;99231.63;;;0.22;100.00
7433;BME280;32233;49.500;7.764;2023-01-28T02:04:07;99231.75;;;0.32;100.00
7433;BME280;32233;49.500;7.764;2023-01-28T02:06:35;99237.31;;;0.39;100.00
7433;BME280;32233;49.500;7.764;2023-01-28T02:09:06;99230.69;;;0.35;100.00
7433;BME280;32233;49.500;7.764;2023-01-28T02:11:33;99241.69;;;0.38;100.00
7433;BME280;32233;49.500;7.764;2023-01-28T02:14:02;99236.84;;;0.34;100.00
7433;BME280;32233;49.500;7.764;2023-01-28T02:16:30;99232.47;;;0.45;100.00
7433;BME280;32233;49.500;7.764;2023-01-28T02:18:57;99235.31;;;0.42;100.00
7433;BME280;32233;49.500;7.764;2023-01-28T02:27:34;99242.63;;;0.48;100.00
7433;BME280;32233;49.500;7.764;2023-01-28T02:32:36;99236.88;;;0.45;100.00
7433;BME280;32233;49.500;7.764;2023-01-28T02:35:13;99248.91;;;0.35;100.00
7433;BME280;32233;49.500;7.764;2023-01-28T02:37:59;99244.19;;;0.62;100.00
7433;BME280;32233;49.500;7.764;2023-01-28T02:40:33;99235.44;;;0.41;100.00
7433;BME280;32233;49.500;7.764;2023-01-28T02:43:42;99230.25;;;0.41;100.00
7433;BME280;32233;49.500;7.764;2023-01-28T02:46:17;99229.06;;;0.45;100.00
7433;BME280;32233;49.500;7.764;2023-01-28T02:49:07;99227.03;;;0.60;100.00
7433;BME280;32233;49.500;7.764;2023-01-28T03:02:39;99241.91;;;0.35;100.00
7433;BME280;32233;49.500;7.764;2023-01-28T03:05:32;99246.53;;;0.20;100.00
7433;BME280;32233;49.500;7.764;2023-01-28T03:08:02;99235.53;;;0.28;100.00
7433;BME280;32233;49.500;7.764;2023-01-28T03:10:52;99239.69;;;0.42;100.00
7433;BME280;32233;49.500;7.764;2023-01-28T03:13:38;99243.31;;;0.28;100.00
7433;BME280;32233;49.500;7.764;2023-01-28T03:16:24;99241.56;;;0.29;100.00
7433;BME280;32233;49.500;7.764;2023-01-28T03:19:10;99246.28;;;0.35;100.00
7433;BME280;32233;49.500;7.764;2023-01-28T03:21:58;99249.84;;;0.34;100.00
7433;BME280;32233;49.500;7.764;2023-01-28T03:24:49;99259.41;;;0.44;100.00
7433;BME280;32233;49.500;7.764;2023-01-28T03:28:13;99250.44;;;0.37;100.00
7433;BME280;32233;49.500;7.764;2023-01-28T03:31:10;99258.38;;;0.47;100.00
7433;BME280;32233;49.500;7.764;2023-01-28T03:33:59;99253.03;;;0.48;100.00
7433;BME280;32233;49.500;7.764;2023-01-28T03:36:45;99259.53;;;0.43;100.00
7433;BME280;32233;49.500;7.764;2023-01-28T03:39:29;99261.09;;;0.45;100.00
7433;BME280;32233;49.500;7.764;2023-01-28T03:41:59;99259.19;;;0.36;100.00
7433;BME280;32233;49.500;7.764;2023-01-28T03:44:26;99265.81;;;0.52;100.00
7433;BME280;32233;49.500;7.764;2023-01-28T03:47:11;99263.13;;;0.53;100.00
7433;BME280;32233;49.500;7.764;2023-01-28T03:49:43;99266.53;;;0.54;100.00
7433;BME280;32233;49.500;7.764;2023-01-28T03:52:12;99267.97;;;0.58;100.00
7433;BME280;32233;49.500;7.764;2023-01-28T03:54:38;99275.00;;;0.22;100.00
7433;BME280;32233;49.500;7.764;2023-01-28T03:57:05;99277.25;;;0.27;100.00
7433;BME280;32233;49.500;7.764;2023-01-28T03:59:32;99276.56;;;0.24;100.00
7433;BME280;32233;49.500;7.764;2023-01-28T04:02:01;99274.69;;;0.38;100.00
7433;BME280;32233;49.500;7.764;2023-01-28T04:04:29;99271.25;;;0.37;100.00
7433;BME280;32233;49.500;7.764;2023-01-28T04:06:57;99260.38;;;0.43;100.00
7433;BME280;32233;49.500;7.764;2023-01-28T04:09:59;99270.19;;;0.51;100.00
7433;BME280;32233;49.500;7.764;2023-01-28T04:12:39;99270.78;;;0.43;100.00
7433;BME280;32233;49.500;7.764;2023-01-28T04:15:06;99276.91;;;0.31;100.00
7433;BME280;32233;49.500;7.764;2023-01-28T04:17:47;99277.19;;;0.51;100.00
7433;BME280;32233;49.500;7.764;2023-01-28T04:20:22;99275.47;;;0.27;100.00
7433;BME280;32233;49.500;7.764;2023-01-28T04:22:49;99282.06;;;0.20;100.00
7433;BME280;32233;49.500;7.764;2023-01-28T04:25:17;99274.78;;;0.25;100.00
7433;BME280;32233;49.500;7.764;2023-01-28T04:27:43;99279.16;;;0.24;100.00
7433;BME280;32233;49.500;7.764;2023-01-28T04:30:29;99281.50;;;0.28;100.00
7433;BME280;32233;49.500;7.764;2023-01-28T04:33:10;99279.63;;;0.30;100.00
7433;BME280;32233;49.500;7.764;2023-01-28T04:35:53;99283.06;;;0.30;100.00
7433;BME280;32233;49.500;7.764;2023-01-28T04:38:34;99280.47;;;0.30;100.00
7433;BME280;32233;49.500;7.764;2023-01-28T04:41:19;99278.00;;;0.29;100.00
7433;BME280;32233;49.500;7.764;2023-01-28T04:43:46;99286.44;;;0.19;100.00
7433;BME280;32233;49.500;7.764;2023-01-28T04:46:20;99293.22;;;0.22;100.00
7433;BME280;32233;49.500;7.764;2023-01-28T04:48:54;99293.00;;;0.25;100.00
7433;BME280;32233;49.500;7.764;2023-01-28T04:51:49;99291.22;;;0.26;100.00
7433;BME280;32233;49.500;7.764;2023-01-28T04:54:45;99291.91;;;0.16;100.00
7433;BME280;32233;49.500;7.764;2023-01-28T04:57:12;99290.13;;;0.17;100.00
7433;BME280;32233;49.500;7.764;2023-01-28T04:59:38;99289.19;;;0.18;100.00
7433;BME280;32233;49.500;7.764;2023-01-28T05:02:05;99297.38;;;0.24;100.00
7433;BME280;32233;49.500;7.764;2023-01-28T05:04:32;99291.31;;;0.13;100.00
7433;BME280;32233;49.500;7.764;2023-01-28T05:06:59;99297.94;;;0.17;100.00
7433;BME280;32233;49.500;7.764;2023-01-28T05:09:30;99302.03;;;0.08;100.00
7433;BME280;32233;49.500;7.764;2023-01-28T05:11:57;99305.22;;;0.12;100.00
7433;BME280;32233;49.500;7.764;2023-01-28T05:14:23;99296.84;;;0.08;100.00
7433;BME280;32233;49.500;7.764;2023-01-28T05:17:02;99300.84;;;0.01;100.00
7433;BME280;32233;49.500;7.764;2023-01-28T05:19:29;99304.03;;;0.05;100.00
7433;BME280;32233;49.500;7.764;2023-01-28T05:21:57;99298.16;;;0.14;100.00
7433;BME280;32233;49.500;7.764;2023-01-28T05:24:44;99303.97;;;0.17;100.00
7433;BME280;32233;49.500;7.764;2023-01-28T05:27:12;99295.34;;;0.17;100.00
7433;BME280;32233;49.500;7.764;2023-01-28T05:29:38;99304.19;;;0.14;100.00
7433;BME280;32233;49.500;7.764;2023-01-28T05:32:06;99311.72;;;0.06;100.00
7433;BME280;32233;49.500;7.764;2023-01-28T05:34:33;99308.69;;;0.12;100.00
7433;BME280;32233;49.500;7.764;2023-01-28T05:37:06;99314.56;;;0.14;100.00
7433;BME280;32233;49.500;7.764;2023-01-28T05:39:35;99311.63;;;0.19;100.00
7433;BME280;32233;49.500;7.764;2023-01-28T05:42:02;99311.84;;;0.16;100.00
7433;BME280;32233;49.500;7.764;2023-01-28T05:44:31;99319.38;;;0.08;100.00
7433;BME280;32233;49.500;7.764;2023-01-28T05:47:07;99324.00;;;0.04;100.00
7433;BME280;32233;49.500;7.764;2023-01-28T05:49:42;99331.16;;;-0.11;100.00
7433;BME280;32233;49.500;7.764;2023-01-28T05:52:25;99332.63;;;0.05;100.00
7433;BME280;32233;49.500;7.764;2023-01-28T05:54:52;99326.84;;;0.01;100.00
7433;BME280;32233;49.500;7.764;2023-01-28T05:57:18;99335.06;;;-0.05;100.00
7433;BME280;32233;49.500;7.764;2023-01-28T05:59:45;99328.75;;;0.10;100.00
7433;BME280;32233;49.500;7.764;2023-01-28T06:02:11;99332.34;;;0.32;100.00
7433;BME280;32233;49.500;7.764;2023-01-28T06:04:40;99339.75;;;0.14;100.00
7433;BME280;32233;49.500;7.764;2023-01-28T06:07:07;99337.75;;;0.17;100.00
7433;BME280;32233;49.500;7.764;2023-01-28T06:09:36;99352.28;;;0.09;100.00
7433;BME280;32233;49.500;7.764;2023-01-28T06:12:03;99348.50;;;0.13;100.00
7433;BME280;32233;49.500;7.764;2023-01-28T06:14:36;99348.63;;;0.22;100.00
7433;BME280;32233;49.500;7.764;2023-01-28T06:17:25;99362.19;;;0.15;100.00
7433;BME280;32233;49.500;7.764;2023-01-28T06:20:03;99362.25;;;0.26;100.00
7433;BME280;32233;49.500;7.764;2023-01-28T06:22:31;99356.44;;;0.22;100.00
7433;BME280;32233;49.500;7.764;2023-01-28T06:24:58;99361.41;;;0.26;100.00
7433;BME280;32233;49.500;7.764;2023-01-28T06:27:25;99356.34;;;0.35;100.00
7433;BME280;32233;49.500;7.764;2023-01-28T06:29:52;99360.50;;;0.38;100.00
7433;BME280;32233;49.500;7.764;2023-01-28T06:32:19;99365.19;;;0.21;100.00
7433;BME280;32233;49.500;7.764;2023-01-28T06:34:46;99371.81;;;0.26;100.00
7433;BME280;32233;49.500;7.764;2023-01-28T06:37:13;99373.28;;;0.06;100.00
7433;BME280;32233;49.500;7.764;2023-01-28T06:39:40;99381.13;;;0.17;100.00
7433;BME280;32233;49.500;7.764;2023-01-28T06:42:06;99377.84;;;0.26;100.00
7433;BME280;32233;49.500;7.764;2023-01-28T06:44:33;99381.00;;;0.18;100.00
7433;BME280;32233;49.500;7.764;2023-01-28T06:46:59;99387.59;;;0.11;100.00
7433;BME280;32233;49.500;7.764;2023-01-28T06:49:26;99395.56;;;0.21;100.00
7433;BME280;32233;49.500;7.764;2023-01-28T06:51:53;99387.72;;;0.10;100.00
7433;BME280;32233;49.500;7.764;2023-01-28T06:54:19;99390.91;;;0.13;100.00
7433;BME280;32233;49.500;7.764;2023-01-28T06:56:46;99389.03;;;0.15;100.00
7433;BME280;32233;49.500;7.764;2023-01-28T06:59:12;99398.03;;;0.22;100.00
7433;BME280;32233;49.500;7.764;2023-01-28T07:01:39;99398.78;;;0.01;100.00
7433;BME280;32233;49.500;7.764;2023-01-28T07:04:05;99396.28;;;0.23;100.00
7433;BME280;32233;49.500;7.764;2023-01-28T07:06:32;99402.22;;;0.01;100.00
7433;BME280;32233;49.500;7.764;2023-01-28T07:08:58;99408.72;;;0.07;100.00
7433;BME280;32233;49.500;7.764;2023-01-28T07:11:25;99404.75;;;0.14;100.00
7433;BME280;32233;49.500;7.764;2023-01-28T07:13:51;99409.34;;;0.10;100.00
7433;BME280;32233;49.500;7.764;2023-01-28T07:16:18;99408.56;;;-0.03;100.00
7433;BME280;32233;49.500;7.764;2023-01-28T07:18:45;99412.41;;;-0.09;100.00
7433;BME280;32233;49.500;7.764;2023-01-28T07:21:11;99410.84;;;0.02;100.00
7433;BME280;32233;49.500;7.764;2023-01-28T07:23:38;99409.63;;;-0.06;100.00
7433;BME280;32233;49.500;7.764;2023-01-28T07:26:05;99406.81;;;-0.03;100.00
7433;BME280;32233;49.500;7.764;2023-01-28T07:28:31;99406.13;;;0.07;100.00
7433;BME280;32233;49.500;7.764;2023-01-28T07:30:58;99407.34;;;0.14;100.00
7433;BME280;32233;49.500;7.764;2023-01-28T07:33:25;99409.53;;;-0.04;100.00
7433;BME280;32233;49.500;7.764;2023-01-28T07:35:51;99413.16;;;0.17;100.00
7433;BME280;32233;49.500;7.764;2023-01-28T07:38:18;99420.16;;;0.28;100.00
7433;BME280;32233;49.500;7.764;2023-01-28T07:40:45;99420.13;;;0.17;99.64
7433;BME280;32233;49.500;7.764;2023-01-28T07:43:11;99413.31;;;0.03;100.00
7433;BME280;32233;49.500;7.764;2023-01-28T07:45:39;99416.25;;;-0.02;100.00
7433;BME280;32233;49.500;7.764;2023-01-28T07:48:08;99417.47;;;0.06;100.00
7433;BME280;32233;49.500;7.764;2023-01-28T07:50:37;99419.94;;;-0.17;100.00
7433;BME280;32233;49.500;7.764;2023-01-28T07:53:05;99417.25;;;0.09;100.00
7433;BME280;32233;49.500;7.764;2023-01-28T07:55:32;99427.88;;;0.06;100.00
7433;BME280;32233;49.500;7.764;2023-01-28T07:58:03;99427.41;;;0.12;100.00
7433;BME280;32233;49.500;7.764;2023-01-28T08:00:32;99438.00;;;-0.03;100.00
7433;BME280;32233;49.500;7.764;2023-01-28T08:03:03;99443.75;;;0.14;100.00
7433;BME280;32233;49.500;7.764;2023-01-28T08:05:45;99436.91;;;0.13;99.56
7433;BME280;32233;49.500;7.764;2023-01-28T08:08:13;99433.56;;;0.11;99.74
7433;BME280;32233;49.500;7.764;2023-01-28T08:10:40;99435.75;;;0.28;100.00
7433;BME280;32233;49.500;7.764;2023-01-28T08:13:08;99443.56;;;0.28;99.52
7433;BME280;32233;49.500;7.764;2023-01-28T08:15:35;99437.81;;;0.36;98.01
7433;BME280;32233;49.500;7.764;2023-01-28T08:18:03;99448.22;;;0.12;99.44
7433;BME280;32233;49.500;7.764;2023-01-28T08:20:31;99439.53;;;0.24;98.70
7433;BME280;32233;49.500;7.764;2023-01-28T08:23:08;99447.38;;;0.35;98.20
7433;BME280;32233;49.500;7.764;2023-01-28T08:25:36;99438.72;;;0.59;98.92
7433;BME280;32233;49.500;7.764;2023-01-28T08:28:04;99442.41;;;0.67;98.08
7433;BME280;32233;49.500;7.764;2023-01-28T08:30:32;99449.56;;;0.53;96.47
7433;BME280;32233;49.500;7.764;2023-01-28T08:32:59;99451.78;;;0.70;96.92
7433;BME280;32233;49.500;7.764;2023-01-28T08:35:26;99436.41;;;0.78;96.37
7433;BME280;32233;49.500;7.764;2023-01-28T08:37:53;99447.56;;;0.45;96.11
7433;BME280;32233;49.500;7.764;2023-01-28T08:40:21;99444.41;;;0.29;97.59
7433;BME280;32233;49.500;7.764;2023-01-28T08:42:48;99446.06;;;0.06;99.04
7433;BME280;32233;49.500;7.764;2023-01-28T08:45:16;99447.56;;;0.45;97.86
7433;BME280;32233;49.500;7.764;2023-01-28T08:48:02;99452.44;;;0.26;97.92
7433;BME280;32233;49.500;7.764;2023-01-28T08:50:34;99456.63;;;0.39;96.56
7433;BME280;32233;49.500;7.764;2023-01-28T08:53:10;99456.28;;;0.44;97.97
7433;BME280;32233;49.500;7.764;2023-01-28T08:55:37;99451.88;;;0.33;98.17
7433;BME280;32233;49.500;7.764;2023-01-28T08:58:05;99449.56;;;0.17;97.92
7433;BME280;32233;49.500;7.764;2023-01-28T09:00:33;99446.78;;;0.32;98.37
7433;BME280;32233;49.500;7.764;2023-01-28T09:03:01;99450.09;;;0.10;96.82
7433;BME280;32233;49.500;7.764;2023-01-28T09:05:31;99455.38;;;0.21;98.01
7433;BME280;32233;49.500;7.764;2023-01-28T09:08:07;99451.09;;;0.44;95.81
7433;BME280;32233;49.500;7.764;2023-01-28T09:10:34;99438.19;;;0.42;95.90
7433;BME280;32233;49.500;7.764;2023-01-28T09:13:07;99443.53;;;0.52;95.35
7433;BME280;32233;49.500;7.764;2023-01-28T09:15:34;99441.38;;;0.81;96.14
7433;BME280;32233;49.500;7.764;2023-01-28T09:18:01;99451.69;;;0.83;94.84
7433;BME280;32233;49.500;7.764;2023-01-28T09:20:28;99448.78;;;0.98;95.34
7433;BME280;32233;49.500;7.764;2023-01-28T09:22:54;99461.38;;;0.81;94.66
7433;BME280;32233;49.500;7.764;2023-01-28T09:25:21;99467.19;;;0.84;95.56
7433;BME280;32233;49.500;7.764;2023-01-28T09:27:48;99469.16;;;1.16;94.14
7433;BME280;32233;49.500;7.764;2023-01-28T09:30:15;99466.03;;;0.99;95.45
7433;BME280;32233;49.500;7.764;2023-01-28T09:32:42;99455.16;;;0.94;94.21
7433;BME280;32233;49.500;7.764;2023-01-28T09:35:09;99470.97;;;0.80;95.05
7433;BME280;32233;49.500;7.764;2023-01-28T09:37:35;99466.75;;;1.02;93.24
7433;BME280;32233;49.500;7.764;2023-01-28T09:40:03;99473.22;;;0.73;92.45
7433;BME280;32233;49.500;7.764;2023-01-28T09:45:24;99479.13;;;0.76;93.89
7433;BME280;32233;49.500;7.764;2023-01-28T09:47:55;99480.56;;;0.56;94.90
7433;BME280;32233;49.500;7.764;2023-01-28T09:50:31;99478.16;;;0.77;94.21
7433;BME280;32233;49.500;7.764;2023-01-28T09:53:10;99487.97;;;0.73;94.39
7433;BME280;32233;49.500;7.764;2023-01-28T09:55:40;99489.53;;;0.52;94.95
7433;BME280;32233;49.500;7.764;2023-01-28T09:58:11;99485.63;;;0.81;94.91
7433;BME280;32233;49.500;7.764;2023-01-28T10:06:25;99487.66;;;0.78;95.79
7433;BME280;32233;49.500;7.764;2023-01-28T10:12:03;99491.94;;;0.90;93.79
7433;BME280;32233;49.500;7.764;2023-01-28T10:14:57;99507.97;;;1.08;93.43
7433;BME280;32233;49.500;7.764;2023-01-28T10:17:39;99506.53;;;0.68;92.38
7433;BME280;32233;49.500;7.764;2023-01-28T10:25:43;99498.25;;;0.98;93.18
7433;BME280;32233;49.500;7.764;2023-01-28T10:28:18;99496.16;;;1.15;93.01
7433;BME280;32233;49.500;7.764;2023-01-28T10:30:47;99495.16;;;1.05;92.87
7433;BME280;32233;49.500;7.764;2023-01-28T10:35:53;99504.06;;;0.43;95.13
7433;BME280;32233;49.500;7.764;2023-01-28T10:38:23;99503.00;;;0.81;94.83
7433;BME280;32233;49.500;7.764;2023-01-28T10:40:50;99503.50;;;0.51;93.84
7433;BME280;32233;49.500;7.764;2023-01-28T10:43:23;99504.94;;;0.55;95.65
7433;BME280;32233;49.500;7.764;2023-01-28T10:45:58;99501.72;;;0.75;93.37
7433;BME280;32233;49.500;7.764;2023-01-28T10:48:37;99496.78;;;0.59;93.99
7433;BME280;32233;49.500;7.764;2023-01-28T10:51:08;99503.44;;;0.63;94.88
7433;BME280;32233;49.500;7.764;2023-01-28T10:53:35;99509.13;;;1.04;94.19
7433;BME280;32233;49.500;7.764;2023-01-28T10:56:05;99509.13;;;1.04;93.17
7433;BME280;32233;49.500;7.764;2023-01-28T10:58:36;99513.16;;;1.08;93.05
7433;BME280;32233;49.500;7.764;2023-01-28T11:01:12;99504.38;;;0.97;93.51
7433;BME280;32233;49.500;7.764;2023-01-28T11:03:50;99512.72;;;0.79;94.95
7433;BME280;32233;49.500;7.764;2023-01-28T11:06:26;99507.81;;;0.63;94.02
7433;BME280;32233;49.500;7.764;2023-01-28T11:08:53;99505.47;;;1.06;94.13
7433;BME280;32233;49.500;7.764;2023-01-28T11:11:27;99503.44;;;1.10;92.28
7433;BME280;32233;49.500;7.764;2023-01-28T11:13:54;99503.97;;;1.15;92.90
7433;BME280;32233;49.500;7.764;2023-01-28T11:16:24;99506.56;;;1.26;90.07
7433;BME280;32233;49.500;7.764;2023-01-28T11:18:54;99498.06;;;1.46;91.87
7433;BME280;32233;49.500;7.764;2023-01-28T11:21:28;99501.84;;;1.42;90.37
7433;BME280;32233;49.500;7.764;2023-01-28T11:24:03;99501.44;;;1.02;89.90
7433;BME280;32233;49.500;7.764;2023-01-28T11:26:35;99501.63;;;0.88;91.49
7433;BME280;32233;49.500;7.764;2023-01-28T11:29:02;99511.56;;;1.52;92.00
7433;BME280;32233;49.500;7.764;2023-01-28T11:31:37;99507.31;;;1.62;89.21
7433;BME280;32233;49.500;7.764;2023-01-28T11:34:05;99505.41;;;1.41;90.57
7433;BME280;32233;49.500;7.764;2023-01-28T11:36:33;99498.16;;;1.22;88.84
7433;BME280;32233;49.500;7.764;2023-01-28T11:39:19;99503.22;;;1.13;89.76
7433;BME280;32233;49.500;7.764;2023-01-28T11:41:46;99500.28;;;1.06;88.70
7433;BME280;32233;49.500;7.764;2023-01-28T11:44:19;99493.28;;;1.07;90.03
7433;BME280;32233;49.500;7.764;2023-01-28T11:52:12;99487.81;;;1.10;90.05
7433;BME280;32233;49.500;7.764;2023-01-28T11:57:58;99499.25;;;1.31;89.04
7433;BME280;32233;49.500;7.764;2023-01-28T12:00:38;99493.44;;;1.39;88.97
7433;BME280;32233;49.500;7.764;2023-01-28T12:03:40;99496.66;;;0.85;90.12
7433;BME280;32233;49.500;7.764;2023-01-28T12:06:40;99495.38;;;0.90;91.23
7433;BME280;32233;49.500;7.764;2023-01-28T12:26:08;99483.38;;;0.41;92.02
7433;BME280;32233;49.500;7.764;2023-01-28T12:34:56;99475.53;;;0.65;91.31
7433;BME280;32233;49.500;7.764;2023-01-28T12:45:46;99472.81;;;1.02;89.88
7433;BME280;32233;49.500;7.764;2023-01-28T12:48:22;99460.72;;;1.12;88.35
7433;BME280;32233;49.500;7.764;2023-01-28T12:51:03;99472.84;;;0.78;86.75
7433;BME280;32233;49.500;7.764;2023-01-28T12:53:40;99470.91;;;0.69;88.39
7433;BME280;32233;49.500;7.764;2023-01-28T12:56:14;99460.13;;;1.09;87.78
7433;BME280;32233;49.500;7.764;2023-01-28T12:58:54;99467.91;;;0.97;86.58
7433;BME280;32233;49.500;7.764;2023-01-28T13:01:28;99471.56;;;0.84;87.33
7433;BME280;32233;49.500;7.764;2023-01-28T13:04:09;99468.34;;;0.80;87.37
7433;BME280;32233;49.500;7.764;2023-01-28T13:06:43;99475.38;;;0.91;88.57
7433;BME280;32233;49.500;7.764;2023-01-28T13:09:23;99471.88;;;0.68;88.42
7433;BME280;32233;49.500;7.764;2023-01-28T13:11:53;99481.94;;;0.37;87.91
7433;BME280;32233;49.500;7.764;2023-01-28T13:14:27;99479.88;;;0.54;90.66
7433;BME280;32233;49.500;7.764;2023-01-28T13:16:54;99471.38;;;0.63;90.35
7433;BME280;32233;49.500;7.764;2023-01-28T13:19:24;99471.81;;;0.57;89.32
7433;BME280;32233;49.500;7.764;2023-01-28T13:21:51;99474.94;;;0.73;89.84
7433;BME280;32233;49.500;7.764;2023-01-28T13:24:20;99471.81;;;0.57;91.02
7433;BME280;32233;49.500;7.764;2023-01-28T13:26:51;99490.00;;;0.45;90.14
7433;BME280;32233;49.500;7.764;2023-01-28T13:31:50;99484.34;;;0.52;89.92
7433;BME280;32233;49.500;7.764;2023-01-28T13:40:03;99498.63;;;0.70;89.08
7433;BME280;32233;49.500;7.764;2023-01-28T13:42:31;99510.41;;;0.63;89.32
7433;BME280;32233;49.500;7.764;2023-01-28T13:45:19;99510.63;;;0.60;88.20
7433;BME280;32233;49.500;7.764;2023-01-28T13:47:50;99516.00;;;0.69;88.14
7433;BME280;32233;49.500;7.764;2023-01-28T13:50:20;99518.56;;;0.58;88.70
7433;BME280;32233;49.500;7.764;2023-01-28T13:55:57;99526.19;;;0.72;88.95
7433;BME280;32233;49.500;7.764;2023-01-28T13:58:48;99526.16;;;0.61;87.81
7433;BME280;32233;49.500;7.764;2023-01-28T14:04:27;99540.53;;;0.54;87.37
7433;BME280;32233;49.500;7.764;2023-01-28T14:07:30;99545.69;;;0.43;87.80
7433;BME280;32233;49.500;7.764;2023-01-28T14:17:44;99548.78;;;0.11;87.69
7433;BME280;32233;49.500;7.764;2023-01-28T14:20:31;99547.03;;;-0.01;87.81
7433;BME280;32233;49.500;7.764;2023-01-28T14:23:04;99550.19;;;0.04;88.83
7433;BME280;32233;49.500;7.764;2023-01-28T14:25:48;99540.06;;;-0.01;88.55
7433;BME280;32233;49.500;7.764;2023-01-28T14:28:27;99546.59;;;0.18;89.29
7433;BME280;32233;49.500;7.764;2023-01-28T14:31:05;99554.34;;;0.31;90.00
7433;BME280;32233;49.500;7.764;2023-01-28T14:33:35;99550.22;;;0.52;89.30
7433;BME280;32233;49.500;7.764;2023-01-28T14:36:02;99550.72;;;0.57;87.63
7433;BME280;32233;49.500;7.764;2023-01-28T14:38:32;99559.44;;;0.32;87.88
7433;BME280;32233;49.500;7.764;2023-01-28T14:41:03;99555.63;;;0.25;88.48
7433;BME280;32233;49.500;7.764;2023-01-28T14:43:30;99558.81;;;0.41;88.27
7433;BME280;32233;49.500;7.764;2023-01-28T14:51:49;99556.81;;;-0.05;88.10
7433;BME280;32233;49.500;7.764;2023-01-28T14:57:20;99555.56;;;0.14;88.82
7433;BME280;32233;49.500;7.764;2023-01-28T14:59:54;99569.41;;;0.02;87.97
7433;BME280;32233;49.500;7.764;2023-01-28T15:02:25;99558.34;;;0.11;89.10
7433;BME280;32233;49.500;7.764;2023-01-28T15:04:52;99564.63;;;-0.17;88.73
7433;BME280;32233;49.500;7.764;2023-01-28T15:07:24;99556.00;;;-0.05;89.44
7433;BME280;32233;49.500;7.764;2023-01-28T15:10:10;99559.88;;;-0.11;89.40
7433;BME280;32233;49.500;7.764;2023-01-28T15:12:42;99557.88;;;-0.07;88.67
7433;BME280;32233;49.500;7.764;2023-01-28T15:15:24;99556.72;;;0.10;90.28
7433;BME280;32233;49.500;7.764;2023-01-28T15:17:53;99555.09;;;-0.04;90.20
7433;BME280;32233;49.500;7.764;2023-01-28T15:20:22;99552.75;;;0.17;88.64
7433;BME280;32233;49.500;7.764;2023-01-28T15:22:51;99543.00;;;0.32;88.76
7433;BME280;32233;49.500;7.764;2023-01-28T15:25:20;99544.94;;;0.17;87.10
7433;BME280;32233;49.500;7.764;2023-01-28T15:27:48;99546.47;;;-0.30;88.83
7433;BME280;32233;49.500;7.764;2023-01-28T15:30:20;99545.97;;;-0.61;90.45
7433;BME280;32233;49.500;7.764;2023-01-28T15:32:56;99546.78;;;-0.35;90.45